sensor_id;sensor_type;location;lat;lon;timestamp;temperature;humidity
23869;DHT22;12115;47.128;15.422;2023-09-19T00:00:44;19.10;99.90
23869;DHT22;12115;47.128;15.422;2023-09-19T00:03:14;19.00;99.90
23869;DHT22;12115;47.128;15.422;2023-09-19T00:05:42;19.10;99.90
23869;DHT22;12115;47.128;15.422;2023-09-19T00:08:13;19.00;99.90
23869;DHT22;12115;47.128;15.422;2023-09-19T00:10:43;19.00;99.90
23869;DHT22;12115;47.128;15.422;2023-09-19T00:13:10;19.00;99.90
23869;DHT22;12115;47.128;15.422;2023-09-19T00:15:45;19.00;99.90
23869;DHT22;12115;47.128;15.422;2023-09-19T00:18:19;19.10;99.90
23869;DHT22;12115;47.128;15.422;2023-09-19T00:20:50;19.00;99.90
23869;DHT22;12115;47.128;15.422;2023-09-19T00:23:19;19.00;99.90
23869;DHT22;12115;47.128;15.422;2023-09-19T00:25:47;19.00;99.90
23869;DHT22;12115;47.128;15.422;2023-09-19T00:28:15;19.00;99.90
23869;DHT22;12115;47.128;15.422;2023-09-19T00:30:43;19.00;99.90
23869;DHT22;12115;47.128;15.422;2023-09-19T00:33:11;19.00;99.90
23869;DHT22;12115;47.128;15.422;2023-09-19T00:35:50;19.00;99.90
23869;DHT22;12115;47.128;15.422;2023-09-19T00:38:17;19.00;99.90
23869;DHT22;12115;47.128;15.422;2023-09-19T00:40:48;19.00;99.90
23869;DHT22;12115;47.128;15.422;2023-09-19T00:43:15;19.00;99.90
23869;DHT22;12115;47.128;15.422;2023-09-19T00:45:44;18.90;99.90
23869;DHT22;12115;47.128;15.422;2023-09-19T00:48:12;18.90;99.90
23869;DHT22;12115;47.128;15.422;2023-09-19T00:50:41;18.90;99.90
23869;DHT22;12115;47.128;15.422;2023-09-19T00:53:13;19.00;99.90
23869;DHT22;12115;47.128;15.422;2023-09-19T00:55:42;19.00;99.90
23869;DHT22;12115;47.128;15.422;2023-09-19T00:58:09;19.00;99.90
23869;DHT22;12115;47.128;15.422;2023-09-19T01:00:37;19.00;99.90
23869;DHT22;12115;47.128;15.422;2023-09-19T01:03:05;19.00;99.90
23869;DHT22;12115;47.128;15.422;2023-09-19T01:05:33;19.00;99.90
23869;DHT22;12115;47.128;15.422;2023-09-19T01:08:00;19.00;99.90
23869;DHT22;12115;47.128;15.422;2023-09-19T01:10:28;19.00;99.90
23869;DHT22;12115;47.128;15.422;2023-09-19T01:13:21;19.00;99.90
23869;DHT22;12115;47.128;15.422;2023-09-19T01:16:11;18.90;99.90
23869;DHT22;12115;47.128;15.422;2023-09-19T01:18:47;18.90;99.90
23869;DHT22;12115;47.128;15.422;2023-09-19T01:24:31;18.90;99.90
23869;DHT22;12115;47.128;15.422;2023-09-19T01:31:51;18.80;99.90
23869;DHT22;12115;47.128;15.422;2023-09-19T01:34:21;18.90;99.90
23869;DHT22;12115;47.128;15.422;2023-09-19T01:36:48;18.80;99.90
23869;DHT22;12115;47.128;15.422;2023-09-19T01:39:18;18.80;99.90
23869;DHT22;12115;47.128;15.422;2023-09-19T01:41:57;18.80;99.90
23869;DHT22;12115;47.128;15.422;2023-09-19T01:44:34;18.80;99.90
23869;DHT22;12115;47.128;15.422;2023-09-19T01:47:03;18.80;99.90
23869;DHT22;12115;47.128;15.422;2023-09-19T01:50:11;18.80;99.90
23869;DHT22;12115;47.128;15.422;2023-09-19T01:52:28;18.80;99.90
23869;DHT22;12115;47.128;15.422;2023-09-19T01:54:56;18.80;99.90
23869;DHT22;12115;47.128;15.422;2023-09-19T01:57:28;18.80;99.90
23869;DHT22;12115;47.128;15.422;2023-09-19T01:59:59;18.80;99.90
23869;DHT22;12115;47.128;15.422;2023-09-19T02:02:27;18.80;99.90
23869;DHT22;12115;47.128;15.422;2023-09-19T02:04:56;18.80;99.90
23869;DHT22;12115;47.128;15.422;2023-09-19T02:07:26;18.80;99.90
23869;DHT22;12115;47.128;15.422;2023-09-19T02:09:55;18.70;99.90
23869;DHT22;12115;47.128;15.422;2023-09-19T02:12:22;18.70;99.90
23869;DHT22;12115;47.128;15.422;2023-09-19T02:14:51;18.60;99.90
23869;DHT22;12115;47.128;15.422;2023-09-19T02:17:18;18.60;99.90
23869;DHT22;12115;47.128;15.422;2023-09-19T02:19:46;18.50;99.90
23869;DHT22;12115;47.128;15.422;2023-09-19T02:22:14;18.50;99.90
23869;DHT22;12115;47.128;15.422;2023-09-19T02:24:43;18.50;99.90
23869;DHT22;12115;47.128;15.422;2023-09-19T02:27:13;18.50;99.90
23869;DHT22;12115;47.128;15.422;2023-09-19T02:29:44;18.50;99.90
23869;DHT22;12115;47.128;15.422;2023-09-19T02:32:11;18.50;99.90
23869;DHT22;12115;47.128;15.422;2023-09-19T02:34:47;18.50;99.90
23869;DHT22;12115;47.128;15.422;2023-09-19T02:37:15;18.50;99.90
23869;DHT22;12115;47.128;15.422;2023-09-19T02:39:43;18.50;99.90
23869;DHT22;12115;47.128;15.422;2023-09-19T02:42:12;18.50;99.90
23869;DHT22;12115;47.128;15.422;2023-09-19T02:44:43;18.50;99.90
23869;DHT22;12115;47.128;15.422;2023-09-19T02:47:10;18.50;99.90
23869;DHT22;12115;47.128;15.422;2023-09-19T02:49:39;18.50;99.90
23869;DHT22;12115;47.128;15.422;2023-09-19T02:52:16;18.50;99.90
23869;DHT22;12115;47.128;15.422;2023-09-19T02:54:44;18.40;99.90
23869;DHT22;12115;47.128;15.422;2023-09-19T02:57:11;18.40;99.90
23869;DHT22;12115;47.128;15.422;2023-09-19T02:59:41;18.40;99.90
23869;DHT22;12115;47.128;15.422;2023-09-19T03:02:09;18.40;99.90
23869;DHT22;12115;47.128;15.422;2023-09-19T03:04:36;18.30;99.90
23869;DHT22;12115;47.128;15.422;2023-09-19T03:07:04;18.30;99.90
23869;DHT22;12115;47.128;15.422;2023-09-19T03:09:31;18.30;99.90
23869;DHT22;12115;47.128;15.422;2023-09-19T03:11:59;18.30;99.90
23869;DHT22;12115;47.128;15.422;2023-09-19T03:14:27;18.30;99.90
23869;DHT22;12115;47.128;15.422;2023-09-19T03:16:59;18.30;99.90
23869;DHT22;12115;47.128;15.422;2023-09-19T03:19:27;18.30;99.90
23869;DHT22;12115;47.128;15.422;2023-09-19T03:21:56;18.30;99.90
23869;DHT22;12115;47.128;15.422;2023-09-19T03:24:25;18.30;99.90
23869;DHT22;12115;47.128;15.422;2023-09-19T03:26:53;18.20;99.90
23869;DHT22;12115;47.128;15.422;2023-09-19T03:29:24;18.20;99.90
23869;DHT22;12115;47.128;15.422;2023-09-19T03:31:52;18.20;99.90
23869;DHT22;12115;47.128;15.422;2023-09-19T03:34:21;18.30;99.90
23869;DHT22;12115;47.128;15.422;2023-09-19T03:36:54;18.20;99.90
23869;DHT22;12115;47.128;15.422;2023-09-19T03:39:27;18.20;99.90
23869;DHT22;12115;47.128;15.422;2023-09-19T03:41:54;18.20;99.90
23869;DHT22;12115;47.128;15.422;2023-09-19T03:44:21;18.20;99.90
23869;DHT22;12115;47.128;15.422;2023-09-19T03:46:49;18.10;99.90
23869;DHT22;12115;47.128;15.422;2023-09-19T03:49:16;18.10;99.90
23869;DHT22;12115;47.128;15.422;2023-09-19T03:51:43;18.10;99.90
23869;DHT22;12115;47.128;15.422;2023-09-19T03:54:10;18.10;99.90
23869;DHT22;12115;47.128;15.422;2023-09-19T03:56:37;18.10;99.90
23869;DHT22;12115;47.128;15.422;2023-09-19T03:59:04;18.10;99.90
23869;DHT22;12115;47.128;15.422;2023-09-19T04:01:32;18.00;99.90
23869;DHT22;12115;47.128;15.422;2023-09-19T04:04:00;18.00;99.90
23869;DHT22;12115;47.128;15.422;2023-09-19T04:06:36;18.00;99.90
23869;DHT22;12115;47.128;15.422;2023-09-19T04:09:03;17.90;99.90
23869;DHT22;12115;47.128;15.422;2023-09-19T04:11:31;17.90;99.90
23869;DHT22;12115;47.128;15.422;2023-09-19T04:13:58;17.90;99.90
23869;DHT22;12115;47.128;15.422;2023-09-19T04:16:26;17.90;99.90
23869;DHT22;12115;47.128;15.422;2023-09-19T04:18:55;17.90;99.90
23869;DHT22;12115;47.128;15.422;2023-09-19T04:21:22;17.90;99.90
23869;DHT22;12115;47.128;15.422;2023-09-19T04:23:49;17.80;99.90
23869;DHT22;12115;47.128;15.422;2023-09-19T04:26:16;17.80;99.90
23869;DHT22;12115;47.128;15.422;2023-09-19T04:28:44;17.80;99.90
23869;DHT22;12115;47.128;15.422;2023-09-19T04:31:11;17.80;99.90
23869;DHT22;12115;47.128;15.422;2023-09-19T04:33:38;17.70;99.90
23869;DHT22;12115;47.128;15.422;2023-09-19T04:36:06;17.70;99.90
23869;DHT22;12115;47.128;15.422;2023-09-19T04:38:54;17.80;99.90
23869;DHT22;12115;47.128;15.422;2023-09-19T04:41:21;17.70;99.90
23869;DHT22;12115;47.128;15.422;2023-09-19T04:43:49;17.70;99.90
23869;DHT22;12115;47.128;15.422;2023-09-19T04:46:18;17.70;99.90
23869;DHT22;12115;47.128;15.422;2023-09-19T04:48:45;17.70;99.90
23869;DHT22;12115;47.128;15.422;2023-09-19T04:51:12;17.70;99.90
23869;DHT22;12115;47.128;15.422;2023-09-19T04:53:40;17.70;99.90
23869;DHT22;12115;47.128;15.422;2023-09-19T04:56:08;17.70;99.90
23869;DHT22;12115;47.128;15.422;2023-09-19T04:58:35;17.70;99.90
23869;DHT22;12115;47.128;15.422;2023-09-19T05:01:02;17.70;99.90
23869;DHT22;12115;47.128;15.422;2023-09-19T05:03:30;17.60;99.90
23869;DHT22;12115;47.128;15.422;2023-09-19T05:05:57;17.60;99.90
23869;DHT22;12115;47.128;15.422;2023-09-19T05:08:24;17.60;99.90
23869;DHT22;12115;47.128;15.422;2023-09-19T05:10:52;17.60;99.90
23869;DHT22;12115;47.128;15.422;2023-09-19T05:13:19;17.50;99.90
23869;DHT22;12115;47.128;15.422;2023-09-19T05:15:46;17.50;99.90
23869;DHT22;12115;47.128;15.422;2023-09-19T05:18:13;17.50;99.90
23869;DHT22;12115;47.128;15.422;2023-09-19T05:20:40;17.60;99.90
23869;DHT22;12115;47.128;15.422;2023-09-19T05:23:08;17.50;99.90
23869;DHT22;12115;47.128;15.422;2023-09-19T05:25:41;17.50;99.90
23869;DHT22;12115;47.128;15.422;2023-09-19T05:28:10;17.60;99.90
23869;DHT22;12115;47.128;15.422;2023-09-19T05:30:43;17.50;99.90
23869;DHT22;12115;47.128;15.422;2023-09-19T05:33:14;17.50;99.90
23869;DHT22;12115;47.128;15.422;2023-09-19T05:35:42;17.60;99.90
23869;DHT22;12115;47.128;15.422;2023-09-19T05:38:13;17.60;99.90
23869;DHT22;12115;47.128;15.422;2023-09-19T05:40:43;17.60;99.90
23869;DHT22;12115;47.128;15.422;2023-09-19T05:43:13;17.60;99.90
23869;DHT22;12115;47.128;15.422;2023-09-19T05:45:42;17.60;99.90
23869;DHT22;12115;47.128;15.422;2023-09-19T05:48:14;17.60;99.90
23869;DHT22;12115;47.128;15.422;2023-09-19T05:50:46;17.50;99.90
23869;DHT22;12115;47.128;15.422;2023-09-19T05:53:17;17.50;99.90
23869;DHT22;12115;47.128;15.422;2023-09-19T05:55:48;17.50;99.90
23869;DHT22;12115;47.128;15.422;2023-09-19T05:58:19;17.50;99.90
23869;DHT22;12115;47.128;15.422;2023-09-19T06:00:54;17.50;99.90
23869;DHT22;12115;47.128;15.422;2023-09-19T06:03:23;17.50;99.90
23869;DHT22;12115;47.128;15.422;2023-09-19T06:05:53;17.50;99.90
23869;DHT22;12115;47.128;15.422;2023-09-19T06:08:26;17.40;99.90
23869;DHT22;12115;47.128;15.422;2023-09-19T06:10:53;17.40;99.90
23869;DHT22;12115;47.128;15.422;2023-09-19T06:13:30;17.50;99.90
23869;DHT22;12115;47.128;15.422;2023-09-19T06:16:11;17.50;99.90
23869;DHT22;12115;47.128;15.422;2023-09-19T06:18:38;17.50;99.90
23869;DHT22;12115;47.128;15.422;2023-09-19T06:21:07;17.50;99.90
23869;DHT22;12115;47.128;15.422;2023-09-19T06:23:37;17.50;99.90
23869;DHT22;12115;47.128;15.422;2023-09-19T06:26:05;17.50;99.90
23869;DHT22;12115;47.128;15.422;2023-09-19T06:28:36;17.50;99.90
23869;DHT22;12115;47.128;15.422;2023-09-19T06:31:13;17.50;99.90
23869;DHT22;12115;47.128;15.422;2023-09-19T06:33:47;17.50;99.90
23869;DHT22;12115;47.128;15.422;2023-09-19T06:36:14;17.60;99.90
23869;DHT22;12115;47.128;15.422;2023-09-19T06:38:49;17.50;99.90
23869;DHT22;12115;47.128;15.422;2023-09-19T06:41:19;17.50;99.90
23869;DHT22;12115;47.128;15.422;2023-09-19T06:43:48;17.50;99.90
23869;DHT22;12115;47.128;15.422;2023-09-19T06:46:16;17.60;99.90
23869;DHT22;12115;47.128;15.422;2023-09-19T06:48:43;17.60;99.90
23869;DHT22;12115;47.128;15.422;2023-09-19T06:51:15;17.60;99.90
23869;DHT22;12115;47.128;15.422;2023-09-19T06:53:44;17.50;99.90
23869;DHT22;12115;47.128;15.422;2023-09-19T06:56:12;17.60;99.90
23869;DHT22;12115;47.128;15.422;2023-09-19T06:58:42;17.60;99.90
23869;DHT22;12115;47.128;15.422;2023-09-19T07:01:16;17.70;99.90
23869;DHT22;12115;47.128;15.422;2023-09-19T07:03:47;17.70;99.90
23869;DHT22;12115;47.128;15.422;2023-09-19T07:06:14;17.70;99.90
23869;DHT22;12115;47.128;15.422;2023-09-19T07:08:46;17.70;99.90
23869;DHT22;12115;47.128;15.422;2023-09-19T07:11:14;17.80;99.90
23869;DHT22;12115;47.128;15.422;2023-09-19T07:13:42;17.80;99.90
23869;DHT22;12115;47.128;15.422;2023-09-19T07:16:10;17.90;99.90
23869;DHT22;12115;47.128;15.422;2023-09-19T07:18:55;17.90;99.90
23869;DHT22;12115;47.128;15.422;2023-09-19T07:21:29;17.90;99.90
23869;DHT22;12115;47.128;15.422;2023-09-19T07:24:02;17.90;99.90
23869;DHT22;12115;47.128;15.422;2023-09-19T07:26:32;17.90;99.90
23869;DHT22;12115;47.128;15.422;2023-09-19T07:29:00;18.00;99.90
23869;DHT22;12115;47.128;15.422;2023-09-19T07:35:04;18.00;99.90
23869;DHT22;12115;47.128;15.422;2023-09-19T07:37:36;18.00;99.90
23869;DHT22;12115;47.128;15.422;2023-09-19T07:40:06;18.00;99.90
23869;DHT22;12115;47.128;15.422;2023-09-19T07:42:46;18.00;99.90
23869;DHT22;12115;47.128;15.422;2023-09-19T07:45:55;18.00;99.90
23869;DHT22;12115;47.128;15.422;2023-09-19T07:48:27;18.00;99.90
23869;DHT22;12115;47.128;15.422;2023-09-19T07:50:55;18.10;99.90
23869;DHT22;12115;47.128;15.422;2023-09-19T07:53:22;18.10;99.90
23869;DHT22;12115;47.128;15.422;2023-09-19T07:56:01;18.30;99.90
23869;DHT22;12115;47.128;15.422;2023-09-19T07:58:29;18.30;99.90
23869;DHT22;12115;47.128;15.422;2023-09-19T08:01:05;18.40;99.90
23869;DHT22;12115;47.128;15.422;2023-09-19T08:03:33;18.50;99.90
23869;DHT22;12115;47.128;15.422;2023-09-19T08:06:01;18.60;99.90
23869;DHT22;12115;47.128;15.422;2023-09-19T08:08:28;18.70;99.90
23869;DHT22;12115;47.128;15.422;2023-09-19T08:10:56;18.80;99.90
23869;DHT22;12115;47.128;15.422;2023-09-19T08:13:23;18.90;99.90
23869;DHT22;12115;47.128;15.422;2023-09-19T08:15:51;19.40;99.90
23869;DHT22;12115;47.128;15.422;2023-09-19T08:18:20;20.00;99.90
23869;DHT22;12115;47.128;15.422;2023-09-19T08:20:50;20.40;99.90
23869;DHT22;12115;47.128;15.422;2023-09-19T08:23:17;20.80;99.90
23869;DHT22;12115;47.128;15.422;2023-09-19T08:25:47;20.80;99.90
23869;DHT22;12115;47.128;15.422;2023-09-19T08:28:14;21.00;99.90
23869;DHT22;12115;47.128;15.422;2023-09-19T08:30:46;21.10;99.90
23869;DHT22;12115;47.128;15.422;2023-09-19T08:33:13;21.60;99.90
23869;DHT22;12115;47.128;15.422;2023-09-19T08:35:42;22.20;99.90
23869;DHT22;12115;47.128;15.422;2023-09-19T08:38:09;22.70;99.90
23869;DHT22;12115;47.128;15.422;2023-09-19T08:40:38;23.20;99.90
23869;DHT22;12115;47.128;15.422;2023-09-19T08:43:07;23.50;99.90
23869;DHT22;12115;47.128;15.422;2023-09-19T08:45:37;23.90;99.90
23869;DHT22;12115;47.128;15.422;2023-09-19T08:48:11;23.60;99.90
23869;DHT22;12115;47.128;15.422;2023-09-19T08:56:16;23.80;99.90
23869;DHT22;12115;47.128;15.422;2023-09-19T08:58:46;23.80;99.90
23869;DHT22;12115;47.128;15.422;2023-09-19T09:01:15;24.00;99.90
23869;DHT22;12115;47.128;15.422;2023-09-19T09:03:42;24.00;99.90
23869;DHT22;12115;47.128;15.422;2023-09-19T09:06:15;23.80;99.90
23869;DHT22;12115;47.128;15.422;2023-09-19T09:08:46;23.50;99.90
23869;DHT22;12115;47.128;15.422;2023-09-19T09:11:15;23.40;99.90
23869;DHT22;12115;47.128;15.422;2023-09-19T09:13:44;23.50;99.90
23869;DHT22;12115;47.128;15.422;2023-09-19T09:16:11;23.40;99.90
23869;DHT22;12115;47.128;15.422;2023-09-19T09:18:40;23.40;99.90
23869;DHT22;12115;47.128;15.422;2023-09-19T09:21:07;23.30;99.90
23869;DHT22;12115;47.128;15.422;2023-09-19T09:23:38;23.00;99.90
23869;DHT22;12115;47.128;15.422;2023-09-19T09:26:06;22.90;99.90
23869;DHT22;12115;47.128;15.422;2023-09-19T09:28:36;22.90;99.90
23869;DHT22;12115;47.128;15.422;2023-09-19T09:31:24;22.90;99.90
23869;DHT22;12115;47.128;15.422;2023-09-19T09:33:55;23.10;99.90
23869;DHT22;12115;47.128;15.422;2023-09-19T09:36:36;23.20;99.90
23869;DHT22;12115;47.128;15.422;2023-09-19T09:39:03;23.30;99.90
23869;DHT22;12115;47.128;15.422;2023-09-19T09:41:43;23.20;99.90
23869;DHT22;12115;47.128;15.422;2023-09-19T09:44:14;23.10;99.90
23869;DHT22;12115;47.128;15.422;2023-09-19T09:46:46;23.10;99.90
23869;DHT22;12115;47.128;15.422;2023-09-19T09:49:26;23.20;99.90
23869;DHT22;12115;47.128;15.422;2023-09-19T09:52:03;23.20;99.90
23869;DHT22;12115;47.128;15.422;2023-09-19T09:54:59;23.40;99.90
23869;DHT22;12115;47.128;15.422;2023-09-19T09:57:34;23.70;99.90
23869;DHT22;12115;47.128;15.422;2023-09-19T10:00:02;23.90;99.90
23869;DHT22;12115;47.128;15.422;2023-09-19T10:02:50;23.80;99.90
23869;DHT22;12115;47.128;15.422;2023-09-19T10:07:54;23.80;99.90
23869;DHT22;12115;47.128;15.422;2023-09-19T10:10:31;23.90;99.90
23869;DHT22;12115;47.128;15.422;2023-09-19T10:13:08;23.80;99.90
23869;DHT22;12115;47.128;15.422;2023-09-19T10:15:48;23.80;99.90
23869;DHT22;12115;47.128;15.422;2023-09-19T10:18:26;23.60;99.90
23869;DHT22;12115;47.128;15.422;2023-09-19T10:20:56;23.60;99.90
23869;DHT22;12115;47.128;15.422;2023-09-19T10:23:23;23.70;99.90
23869;DHT22;12115;47.128;15.422;2023-09-19T10:28:58;23.50;99.90
23869;DHT22;12115;47.128;15.422;2023-09-19T10:31:30;23.80;99.90
23869;DHT22;12115;47.128;15.422;2023-09-19T10:34:02;24.00;99.90
23869;DHT22;12115;47.128;15.422;2023-09-19T10:36:33;24.00;99.90
23869;DHT22;12115;47.128;15.422;2023-09-19T10:39:02;24.20;99.90
23869;DHT22;12115;47.128;15.422;2023-09-19T10:41:34;24.20;99.90
23869;DHT22;12115;47.128;15.422;2023-09-19T10:44:02;24.30;99.90
23869;DHT22;12115;47.128;15.422;2023-09-19T10:46:31;24.30;99.90
23869;DHT22;12115;47.128;15.422;2023-09-19T10:49:04;24.00;99.90
23869;DHT22;12115;47.128;15.422;2023-09-19T10:51:54;24.00;99.90
23869;DHT22;12115;47.128;15.422;2023-09-19T10:54:29;23.90;99.90
23869;DHT22;12115;47.128;15.422;2023-09-19T10:57:00;24.00;99.90
23869;DHT22;12115;47.128;15.422;2023-09-19T10:59:31;24.10;99.90
23869;DHT22;12115;47.128;15.422;2023-09-19T11:02:17;24.20;99.90
23869;DHT22;12115;47.128;15.422;2023-09-19T11:04:45;24.30;99.90
23869;DHT22;12115;47.128;15.422;2023-09-19T11:07:15;24.10;99.90
23869;DHT22;12115;47.128;15.422;2023-09-19T11:12:59;24.10;99.90
23869;DHT22;12115;47.128;15.422;2023-09-19T11:16:02;24.00;99.90
23869;DHT22;12115;47.128;15.422;2023-09-19T11:18:01;24.20;99.90
23869;DHT22;12115;47.128;15.422;2023-09-19T11:20:49;24.40;99.90
23869;DHT22;12115;47.128;15.422;2023-09-19T11:23:36;24.30;99.90
23869;DHT22;12115;47.128;15.422;2023-09-19T11:26:04;24.20;99.90
23869;DHT22;12115;47.128;15.422;2023-09-19T11:28:32;24.30;99.90
23869;DHT22;12115;47.128;15.422;2023-09-19T11:31:00;24.30;99.90
23869;DHT22;12115;47.128;15.422;2023-09-19T11:33:48;24.30;99.90
23869;DHT22;12115;47.128;15.422;2023-09-19T11:36:36;24.30;99.90
23869;DHT22;12115;47.128;15.422;2023-09-19T11:39:03;24.50;99.90
23869;DHT22;12115;47.128;15.422;2023-09-19T11:41:41;24.50;99.90
23869;DHT22;12115;47.128;15.422;2023-09-19T11:49:19;24.70;99.90
23869;DHT22;12115;47.128;15.422;2023-09-19T11:51:53;24.90;99.90
23869;DHT22;12115;47.128;15.422;2023-09-19T11:54:20;24.70;99.90
23869;DHT22;12115;47.128;15.422;2023-09-19T11:56:55;24.90;99.90
23869;DHT22;12115;47.128;15.422;2023-09-19T11:59:23;24.70;99.90
23869;DHT22;12115;47.128;15.422;2023-09-19T12:01:51;24.50;99.90
23869;DHT22;12115;47.128;15.422;2023-09-19T12:07:08;24.50;99.90
23869;DHT22;12115;47.128;15.422;2023-09-19T12:09:43;24.50;99.90
23869;DHT22;12115;47.128;15.422;2023-09-19T12:14:50;24.50;99.90
23869;DHT22;12115;47.128;15.422;2023-09-19T12:17:17;24.50;99.90
23869;DHT22;12115;47.128;15.422;2023-09-19T12:19:51;24.60;99.90
23869;DHT22;12115;47.128;15.422;2023-09-19T12:22:19;24.70;99.90
23869;DHT22;12115;47.128;15.422;2023-09-19T12:24:48;24.40;99.90
23869;DHT22;12115;47.128;15.422;2023-09-19T12:27:15;24.30;99.90
23869;DHT22;12115;47.128;15.422;2023-09-19T12:29:47;24.30;99.90
23869;DHT22;12115;47.128;15.422;2023-09-19T12:32:35;24.10;99.90
23869;DHT22;12115;47.128;15.422;2023-09-19T12:35:02;23.90;99.90
23869;DHT22;12115;47.128;15.422;2023-09-19T12:37:34;24.00;99.90
23869;DHT22;12115;47.128;15.422;2023-09-19T12:40:03;24.00;99.90
23869;DHT22;12115;47.128;15.422;2023-09-19T12:42:42;24.00;99.90
23869;DHT22;12115;47.128;15.422;2023-09-19T12:45:09;23.90;99.90
23869;DHT22;12115;47.128;15.422;2023-09-19T12:47:37;24.10;99.90
23869;DHT22;12115;47.128;15.422;2023-09-19T12:50:16;24.20;99.90
23869;DHT22;12115;47.128;15.422;2023-09-19T12:52:52;24.30;99.90
23869;DHT22;12115;47.128;15.422;2023-09-19T12:55:24;24.40;99.90
23869;DHT22;12115;47.128;15.422;2023-09-19T13:00:39;24.50;99.90
23869;DHT22;12115;47.128;15.422;2023-09-19T13:03:10;24.50;99.90
23869;DHT22;12115;47.128;15.422;2023-09-19T13:08:34;24.60;99.90
23869;DHT22;12115;47.128;15.422;2023-09-19T13:13:37;24.60;99.90
23869;DHT22;12115;47.128;15.422;2023-09-19T13:16:05;24.60;99.90
23869;DHT22;12115;47.128;15.422;2023-09-19T13:18:42;24.70;99.90
23869;DHT22;12115;47.128;15.422;2023-09-19T13:21:12;24.70;99.90
23869;DHT22;12115;47.128;15.422;2023-09-19T13:23:42;24.70;99.90
23869;DHT22;12115;47.128;15.422;2023-09-19T13:26:11;24.50;99.90
23869;DHT22;12115;47.128;15.422;2023-09-19T13:28:41;24.60;99.90
23869;DHT22;12115;47.128;15.422;2023-09-19T13:31:10;24.50;99.90
23869;DHT22;12115;47.128;15.422;2023-09-19T13:33:45;24.40;99.90
23869;DHT22;12115;47.128;15.422;2023-09-19T13:36:17;24.40;99.90
23869;DHT22;12115;47.128;15.422;2023-09-19T13:38:55;24.40;99.90
23869;DHT22;12115;47.128;15.422;2023-09-19T13:41:24;24.50;99.90
23869;DHT22;12115;47.128;15.422;2023-09-19T13:43:51;24.50;99.90
23869;DHT22;12115;47.128;15.422;2023-09-19T13:49:11;24.30;99.90
23869;DHT22;12115;47.128;15.422;2023-09-19T13:51:50;24.30;99.90
23869;DHT22;12115;47.128;15.422;2023-09-19T13:54:21;24.30;99.90
23869;DHT22;12115;47.128;15.422;2023-09-19T13:56:53;24.30;99.90
23869;DHT22;12115;47.128;15.422;2023-09-19T13:59:28;24.30;99.90
23869;DHT22;12115;47.128;15.422;2023-09-19T14:02:12;24.20;99.90
23869;DHT22;12115;47.128;15.422;2023-09-19T14:04:55;24.20;99.90
23869;DHT22;12115;47.128;15.422;2023-09-19T14:07:23;24.10;99.90
23869;DHT22;12115;47.128;15.422;2023-09-19T14:09:52;24.10;99.90
23869;DHT22;12115;47.128;15.422;2023-09-19T14:12:19;24.10;99.90
23869;DHT22;12115;47.128;15.422;2023-09-19T14:14:48;24.10;99.90
23869;DHT22;12115;47.128;15.422;2023-09-19T14:17:20;24.10;99.90
23869;DHT22;12115;47.128;15.422;2023-09-19T14:19:49;24.20;99.90
23869;DHT22;12115;47.128;15.422;2023-09-19T14:22:16;24.20;99.90
23869;DHT22;12115;47.128;15.422;2023-09-19T14:52:49;24.00;99.90
23869;DHT22;12115;47.128;15.422;2023-09-19T14:55:22;23.90;99.90
23869;DHT22;12115;47.128;15.422;2023-09-19T14:57:53;24.00;99.90
23869;DHT22;12115;47.128;15.422;2023-09-19T15:00:37;24.00;99.90
23869;DHT22;12115;47.128;15.422;2023-09-19T16:35:03;23.30;99.90
23869;DHT22;12115;47.128;15.422;2023-09-19T16:45:54;23.00;99.90
23869;DHT22;12115;47.128;15.422;2023-09-19T16:48:52;22.80;99.90
23869;DHT22;12115;47.128;15.422;2023-09-19T16:51:31;22.70;99.90
23869;DHT22;12115;47.128;15.422;2023-09-19T16:54:02;22.70;99.90
23869;DHT22;12115;47.128;15.422;2023-09-19T16:56:32;22.50;99.90
23869;DHT22;12115;47.128;15.422;2023-09-19T16:59:08;22.50;99.90
23869;DHT22;12115;47.128;15.422;2023-09-19T17:01:38;22.40;99.90
23869;DHT22;12115;47.128;15.422;2023-09-19T17:04:08;22.30;99.90
23869;DHT22;12115;47.128;15.422;2023-09-19T17:06:39;22.30;99.90
23869;DHT22;12115;47.128;15.422;2023-09-19T17:09:09;22.10;99.90
23869;DHT22;12115;47.128;15.422;2023-09-19T17:11:38;22.00;99.90
23869;DHT22;12115;47.128;15.422;2023-09-19T17:14:08;22.00;99.90
23869;DHT22;12115;47.128;15.422;2023-09-19T17:16:37;21.80;99.90
23869;DHT22;12115;47.128;15.422;2023-09-19T17:19:08;21.70;99.90
23869;DHT22;12115;47.128;15.422;2023-09-19T17:21:37;21.60;99.90
23869;DHT22;12115;47.128;15.422;2023-09-19T17:24:06;21.50;99.90
23869;DHT22;12115;47.128;15.422;2023-09-19T17:26:40;21.50;99.90
23869;DHT22;12115;47.128;15.422;2023-09-19T17:29:13;21.50;99.90
23869;DHT22;12115;47.128;15.422;2023-09-19T17:31:42;21.40;99.90
23869;DHT22;12115;47.128;15.422;2023-09-19T17:34:13;21.30;99.90
23869;DHT22;12115;47.128;15.422;2023-09-19T17:36:53;21.20;99.90
23869;DHT22;12115;47.128;15.422;2023-09-19T17:39:22;21.10;99.90
23869;DHT22;12115;47.128;15.422;2023-09-19T17:41:54;20.90;99.90
23869;DHT22;12115;47.128;15.422;2023-09-19T17:44:28;20.80;99.90
23869;DHT22;12115;47.128;15.422;2023-09-19T17:47:05;20.60;99.90
23869;DHT22;12115;47.128;15.422;2023-09-19T17:49:36;20.70;99.90
23869;DHT22;12115;47.128;15.422;2023-09-19T17:52:06;20.70;99.90
23869;DHT22;12115;47.128;15.422;2023-09-19T17:54:40;20.60;99.90
23869;DHT22;12115;47.128;15.422;2023-09-19T17:57:29;20.50;99.90
23869;DHT22;12115;47.128;15.422;2023-09-19T18:00:09;20.40;99.90
23869;DHT22;12115;47.128;15.422;2023-09-19T18:02:40;20.20;99.90
23869;DHT22;12115;47.128;15.422;2023-09-19T18:05:09;20.20;99.90
23869;DHT22;12115;47.128;15.422;2023-09-19T18:07:45;20.10;99.90
23869;DHT22;12115;47.128;15.422;2023-09-19T18:10:16;20.00;99.90
23869;DHT22;12115;47.128;15.422;2023-09-19T18:12:47;20.00;99.90
23869;DHT22;12115;47.128;15.422;2023-09-19T18:15:30;20.00;99.90
23869;DHT22;12115;47.128;15.422;2023-09-19T18:18:11;19.90;99.90
23869;DHT22;12115;47.128;15.422;2023-09-19T18:20:42;19.90;99.90
23869;DHT22;12115;47.128;15.422;2023-09-19T18:23:12;19.80;99.90
23869;DHT22;12115;47.128;15.422;2023-09-19T18:25:46;19.90;99.90
23869;DHT22;12115;47.128;15.422;2023-09-19T18:28:18;19.80;99.90
23869;DHT22;12115;47.128;15.422;2023-09-19T18:30:54;19.80;99.90
23869;DHT22;12115;47.128;15.422;2023-09-19T18:33:27;19.80;99.90
23869;DHT22;12115;47.128;15.422;2023-09-19T18:36:04;19.70;99.90